Time;durP1;ratioP1;P1;durP2;ratioP2;P2;SDS_P1;SDS_P2;PMS_P1;PMS_P2;Temp;Humidity;BMP_temperature;BMP_pressure;BME280_temperature;BME280_humidity;BME280_pressure;Samples;Min_cycle;Max_cycle;Signal;HPM_P1;HPM_P2
2021/09/01 00:01:47;;;;;;;7.90;7.30;;;;;;;9.63;100.00;98834.19;5028232;28;20212;-71
2021/09/01 00:04:15;;;;;;;8.10;7.50;;;;;;;9.59;100.00;98836.28;5026527;28;20562;-71
2021/09/01 00:06:43;;;;;;;8.10;7.50;;;;;;;9.53;100.00;98839.50;5020680;28;20231;-71
2021/09/01 00:09:12;;;;;;;7.60;7.00;;;;;;;9.50;100.00;98842.41;5027305;28;20215;-71
2021/09/01 00:11:40;;;;;;;7.73;7.03;;;;;;;9.47;100.00;98838.22;5020586;28;21721;-71
2021/09/01 00:14:08;;;;;;;7.63;7.10;;;;;;;9.48;100.00;98845.19;5030298;28;20219;-71
2021/09/01 00:16:38;;;;;;;7.70;6.57;;;;;;;9.45;100.00;98840.16;5025124;28;20243;-71
2021/09/01 00:19:09;;;;;;;7.90;7.20;;;;;;;9.44;100.00;98838.50;5021271;28;20196;-71
2021/09/01 00:21:37;;;;;;;7.30;6.80;;;;;;;9.41;100.00;98839.59;5025909;28;20215;-71
2021/09/01 00:24:06;;;;;;;7.23;6.60;;;;;;;9.43;100.00;98839.47;5020669;28;20208;-71
2021/09/01 00:26:34;;;;;;;7.90;7.40;;;;;;;9.40;100.00;98837.09;5024606;28;20227;-71
2021/09/01 00:29:02;;;;;;;7.83;7.23;;;;;;;9.39;100.00;98830.13;5025755;28;20222;-71
2021/09/01 00:31:31;;;;;;;7.97;7.27;;;;;;;9.41;100.00;98829.00;5016804;28;20280;-71
2021/09/01 00:34:00;;;;;;;7.93;7.20;;;;;;;9.33;100.00;98834.13;5023141;28;20236;-71
2021/09/01 00:36:28;;;;;;;6.73;6.27;;;;;;;9.39;100.00;98838.06;5016488;28;20307;-71
2021/09/01 00:38:56;;;;;;;7.00;6.50;;;;;;;9.36;100.00;98839.16;5020712;28;20222;-70
2021/09/01 00:41:26;;;;;;;8.33;7.63;;;;;;;9.33;100.00;98839.44;5023594;28;20582;-71
2021/09/01 00:43:55;;;;;;;8.33;7.63;;;;;;;9.31;100.00;98837.91;5032139;28;20569;-71
2021/09/01 00:46:23;;;;;;;8.60;7.47;;;;;;;9.27;100.00;98835.50;5025180;28;20228;-71
2021/09/01 00:48:52;;;;;;;7.83;7.20;;;;;;;9.22;100.00;98839.53;5022886;28;20234;-71
2021/09/01 00:51:22;;;;;;;8.30;7.70;;;;;;;9.23;100.00;98835.94;5028188;28;20211;-69
2021/09/01 00:53:50;;;;;;;7.60;7.00;;;;;;;9.23;100.00;98830.63;5013551;28;20243;-71
2021/09/01 00:56:18;;;;;;;7.40;6.80;;;;;;;9.20;100.00;98829.09;5024773;28;20208;-71
2021/09/01 00:58:47;;;;;;;7.73;7.10;;;;;;;9.14;100.00;98831.44;5026784;28;20214;-71
2021/09/01 01:01:16;;;;;;;7.47;6.87;;;;;;;9.12;100.00;98843.00;5033688;28;20207;-71
2021/09/01 01:03:48;;;;;;;7.30;6.70;;;;;;;9.10;100.00;98836.16;5030517;28;20248;-71
2021/09/01 01:06:17;;;;;;;7.37;6.87;;;;;;;9.05;100.00;98839.19;5026801;28;20639;-71
2021/09/01 01:08:47;;;;;;;8.33;7.60;;;;;;;9.04;100.00;98834.06;5030606;28;20298;-71
2021/09/01 01:11:15;;;;;;;8.07;7.47;;;;;;;9.03;100.00;98840.31;5026102;28;20415;-71
2021/09/01 01:13:44;;;;;;;7.60;7.00;;;;;;;9.04;100.00;98836.69;5025599;28;20695;-71
2021/09/01 01:16:13;;;;;;;8.23;7.63;;;;;;;9.05;100.00;98836.53;5028337;28;20247;-71
2021/09/01 01:18:43;;;;;;;7.97;7.37;;;;;;;9.03;100.00;98837.66;5025537;28;20208;-71
2021/09/01 01:21:15;;;;;;;8.53;7.73;;;;;;;8.98;100.00;98843.34;5023845;28;20236;-71
2021/09/01 01:23:43;;;;;;;7.63;7.13;;;;;;;8.97;100.00;98837.25;5028575;28;20224;-70
2021/09/01 01:26:12;;;;;;;7.43;6.83;;;;;;;8.89;100.00;98844.97;5029356;28;20512;-71
2021/09/01 01:28:41;;;;;;;7.90;7.20;;;;;;;8.91;100.00;98847.50;5028672;28;20228;-71
2021/09/01 01:31:09;;;;;;;7.87;7.27;;;;;;;8.83;100.00;98846.34;5029753;28;20686;-71
2021/09/01 01:33:37;;;;;;;7.40;6.80;;;;;;;8.79;100.00;98847.59;5029849;28;20235;-71
2021/09/01 01:36:05;;;;;;;8.13;7.53;;;;;;;8.76;100.00;98847.84;5026114;28;20282;-70
2021/09/01 01:38:33;;;;;;;8.07;7.37;;;;;;;8.72;100.00;98848.22;5032417;28;20204;-70
2021/09/01 01:41:01;;;;;;;8.23;7.53;;;;;;;8.72;100.00;98856.16;5026770;28;20764;-71
2021/09/01 01:43:36;;;;;;;8.70;7.07;;;;;;;8.73;100.00;98855.19;5026695;28;20239;-71
2021/09/01 01:46:05;;;;;;;8.00;7.40;;;;;;;8.66;100.00;98853.09;5025983;28;20210;-71
2021/09/01 01:48:34;;;;;;;7.93;7.33;;;;;;;8.64;100.00;98857.66;5026446;28;20255;-71
2021/09/01 01:51:02;;;;;;;8.13;7.53;;;;;;;8.63;100.00;98863.91;5028800;28;20216;-71
2021/09/01 01:53:31;;;;;;;8.00;7.20;;;;;;;8.64;100.00;98859.44;5032801;28;20789;-71
2021/09/01 01:55:59;;;;;;;10.73;7.77;;;;;;;8.61;100.00;98860.56;5025535;28;20222;-71
2021/09/01 01:58:27;;;;;;;7.57;6.97;;;;;;;8.61;100.00;98857.06;5030972;28;20668;-70
2021/09/01 02:00:57;;;;;;;8.00;7.40;;;;;;;8.60;100.00;98860.69;5028265;28;20212;-70
2021/09/01 02:03:25;;;;;;;7.63;7.13;;;;;;;8.58;100.00;98862.63;5024298;28;20708;-71
2021/09/01 02:05:53;;;;;;;7.83;7.07;;;;;;;8.59;100.00;98875.72;5030883;28;20298;-71
2021/09/01 02:08:21;;;;;;;7.77;7.07;;;;;;;8.64;100.00;98875.31;5031887;28;20704;-70
2021/09/01 02:10:50;;;;;;;7.73;7.13;;;;;;;8.56;100.00;98878.63;5026018;28;20212;-71
2021/09/01 02:13:18;;;;;;;7.93;7.33;;;;;;;8.48;100.00;98873.09;5033934;28;20592;-70
2021/09/01 02:15:46;;;;;;;7.40;6.90;;;;;;;8.41;100.00;98867.50;5025673;28;20204;-71
2021/09/01 02:18:15;;;;;;;7.50;6.90;;;;;;;8.41;100.00;98867.50;5025014;28;20222;-71
2021/09/01 02:20:43;;;;;;;8.17;7.57;;;;;;;8.43;100.00;98870.84;5029750;28;20208;-71
2021/09/01 02:23:12;;;;;;;7.20;6.60;;;;;;;8.39;100.00;98878.19;5028287;28;20219;-71
2021/09/01 02:25:40;;;;;;;7.57;6.93;;;;;;;8.35;100.00;98874.13;5030269;28;20212;-70
2021/09/01 02:28:08;;;;;;;7.40;6.90;;;;;;;8.32;100.00;98874.38;5021868;28;20681;-71
2021/09/01 02:30:36;;;;;;;8.00;7.20;;;;;;;8.28;100.00;98880.88;5029197;28;20203;-71
2021/09/01 02:33:04;;;;;;;7.17;6.67;;;;;;;8.25;100.00;98883.78;5028205;28;20228;-70
2021/09/01 02:35:33;;;;;;;7.63;7.03;;;;;;;8.21;100.00;98877.91;5028019;28;20217;-71
2021/09/01 02:38:03;;;;;;;7.70;7.10;;;;;;;8.17;100.00;98879.13;5028702;28;20211;-71
2021/09/01 02:40:31;;;;;;;7.10;6.60;;;;;;;8.17;100.00;98884.41;5030580;28;20214;-71
2021/09/01 02:43:00;;;;;;;8.43;7.53;;;;;;;8.13;100.00;98880.34;5024890;28;20220;-71
2021/09/01 02:45:28;;;;;;;7.40;6.70;;;;;;;8.11;100.00;98895.47;5025473;28;20351;-71
2021/09/01 02:47:57;;;;;;;8.10;6.83;;;;;;;8.02;100.00;98885.69;5027161;28;20479;-71
2021/09/01 02:50:25;;;;;;;7.37;6.87;;;;;;;8.03;100.00;98885.53;5029369;28;20215;-70
2021/09/01 02:52:55;;;;;;;9.27;7.73;;;;;;;7.95;100.00;98885.34;5030419;28;20227;-71
2021/09/01 02:55:23;;;;;;;7.20;6.70;;;;;;;7.93;100.00;98887.25;5025881;28;20307;-71
2021/09/01 02:57:51;;;;;;;7.03;6.53;;;;;;;7.93;100.00;98889.91;5025701;28;20208;-71
2021/09/01 03:00:19;;;;;;;7.27;6.67;;;;;;;7.89;100.00;98901.69;5032960;28;20218;-71
2021/09/01 03:02:47;;;;;;;6.77;6.27;;;;;;;7.78;100.00;98892.84;5024969;28;20224;-71
2021/09/01 03:05:16;;;;;;;6.87;6.23;;;;;;;7.84;100.00;98893.28;5025384;28;20441;-71
2021/09/01 03:07:44;;;;;;;8.43;6.77;;;;;;;7.81;100.00;98891.72;5027999;28;20239;-71
2021/09/01 03:10:13;;;;;;;7.37;6.67;;;;;;;7.75;100.00;98893.06;5021042;28;20216;-70
2021/09/01 03:12:41;;;;;;;7.40;6.70;;;;;;;7.73;100.00;98894.16;5021566;28;20227;-70
2021/09/01 03:15:10;;;;;;;6.97;6.23;;;;;;;7.68;100.00;98891.88;5021042;28;20280;-71
2021/09/01 03:17:38;;;;;;;7.33;6.83;;;;;;;7.66;100.00;98893.81;5024749;28;20743;-71
2021/09/01 03:20:07;;;;;;;7.37;6.77;;;;;;;7.64;100.00;98899.22;5028025;28;20235;-71
2021/09/01 03:22:36;;;;;;;6.90;6.40;;;;;;;7.64;100.00;98893.09;5026294;28;20263;-71
2021/09/01 03:25:04;;;;;;;7.23;6.53;;;;;;;7.60;100.00;98891.66;5014999;28;20734;-71
2021/09/01 03:27:34;;;;;;;9.30;6.43;;;;;;;7.61;100.00;98891.56;5015419;28;20263;-71
2021/09/01 03:30:03;;;;;;;6.97;6.27;;;;;;;7.53;100.00;98892.16;5028438;28;20387;-70
2021/09/01 03:32:31;;;;;;;6.90;6.20;;;;;;;7.46;100.00;98898.03;5026557;28;20220;-70
2021/09/01 03:34:59;;;;;;;7.20;6.50;;;;;;;7.48;100.00;98901.38;5025850;28;20219;-70
2021/09/01 03:37:27;;;;;;;6.60;6.10;;;;;;;7.49;100.00;98903.91;5027042;28;20698;-70
2021/09/01 03:39:56;;;;;;;6.70;6.10;;;;;;;7.39;100.00;98903.81;5030907;28;20217;-70
2021/09/01 03:42:24;;;;;;;7.10;6.50;;;;;;;7.36;100.00;98909.31;5024589;28;20665;-70
2021/09/01 03:44:53;;;;;;;7.60;6.63;;;;;;;7.36;100.00;98908.47;5026312;28;20645;-70
2021/09/01 03:47:21;;;;;;;7.47;6.87;;;;;;;7.33;100.00;98908.72;5023698;28;20290;-69
2021/09/01 03:49:49;;;;;;;6.77;6.27;;;;;;;7.28;100.00;98914.38;5019673;28;20607;-70
2021/09/01 03:52:17;;;;;;;7.50;6.90;;;;;;;7.24;100.00;98905.00;5029189;28;20499;-70
2021/09/01 03:54:46;;;;;;;7.00;6.50;;;;;;;7.20;100.00;98909.69;5025078;28;20206;-70
2021/09/01 03:57:14;;;;;;;6.80;6.30;;;;;;;7.19;100.00;98913.28;5026278;28;20211;-70
2021/09/01 03:59:42;;;;;;;7.20;6.60;;;;;;;7.15;100.00;98906.56;5029395;28;20208;-70
2021/09/01 04:02:11;;;;;;;8.33;7.63;;;;;;;7.13;100.00;98913.75;5021395;28;20246;-70
2021/09/01 04:04:40;;;;;;;6.77;6.27;;;;;;;7.18;100.00;98918.66;5021471;28;20629;-69
2021/09/01 04:07:08;;;;;;;7.73;6.97;;;;;;;7.11;100.00;98920.94;5020729;28;20243;-69
2021/09/01 04:09:36;;;;;;;6.80;6.20;;;;;;;7.11;100.00;98920.94;5021482;28;20231;-69
2021/09/01 04:12:05;;;;;;;6.63;6.13;;;;;;;7.08;100.00;98922.00;5032690;28;20626;-67
2021/09/01 04:14:34;;;;;;;7.33;6.77;;;;;;;7.12;100.00;98920.00;5032626;28;20371;-68
2021/09/01 04:17:02;;;;;;;7.33;6.83;;;;;;;7.14;100.00;98918.06;5031698;28;20353;-68
2021/09/01 04:19:32;;;;;;;7.30;6.80;;;;;;;7.17;100.00;98924.88;5026755;28;20231;-69
2021/09/01 04:22:00;;;;;;;8.30;6.20;;;;;;;7.13;100.00;98923.44;5031741;28;20227;-68
2021/09/01 04:24:28;;;;;;;6.57;6.13;;;;;;;7.12;100.00;98927.03;5030466;28;20334;-68
2021/09/01 04:26:56;;;;;;;6.40;5.83;;;;;;;7.06;100.00;98923.94;5027727;28;20208;-66
2021/09/01 04:29:24;;;;;;;6.33;5.73;;;;;;;7.08;100.00;98927.28;5028413;28;20586;-68
2021/09/01 04:31:52;;;;;;;6.57;6.07;;;;;;;7.05;100.00;98926.69;5031673;28;20285;-68
2021/09/01 04:34:20;;;;;;;7.13;6.50;;;;;;;7.01;100.00;98931.34;5030287;28;20212;-69
2021/09/01 04:36:49;;;;;;;6.90;6.40;;;;;;;7.01;100.00;98935.78;5030079;28;20519;-68
2021/09/01 04:39:17;;;;;;;6.17;5.77;;;;;;;6.98;100.00;98930.75;5025520;28;20219;-68
2021/09/01 04:41:50;;;;;;;6.47;5.97;;;;;;;7.01;100.00;98939.25;5034222;28;20227;-68
2021/09/01 04:44:18;;;;;;;6.77;6.27;;;;;;;7.02;100.00;98937.47;5030343;28;20219;-68
2021/09/01 04:46:46;;;;;;;6.37;5.87;;;;;;;7.05;100.00;98937.25;5030079;28;20615;-69
2021/09/01 04:49:14;;;;;;;7.23;6.63;;;;;;;7.06;100.00;98938.91;5026930;28;20236;-68
2021/09/01 04:51:43;;;;;;;6.40;5.90;;;;;;;7.06;100.00;98931.00;5021803;28;20235;-68
2021/09/01 04:54:12;;;;;;;7.27;6.67;;;;;;;7.02;100.00;98948.03;5030806;28;20212;-68
2021/09/01 04:56:40;;;;;;;8.07;6.63;;;;;;;6.99;100.00;98933.28;5028480;28;20217;-67
2021/09/01 04:59:08;;;;;;;7.67;7.07;;;;;;;7.01;100.00;98938.41;5027348;28;20252;-70
2021/09/01 05:01:36;;;;;;;6.77;6.27;;;;;;;7.02;100.00;98935.66;5027696;28;20237;-70
2021/09/01 05:04:05;;;;;;;7.13;6.53;;;;;;;7.06;100.00;98938.91;5019986;28;20200;-71
2021/09/01 05:06:33;;;;;;;7.67;7.07;;;;;;;7.07;100.00;98943.22;5022166;28;20219;-71
2021/09/01 05:09:01;;;;;;;7.67;6.57;;;;;;;7.08;100.00;98944.91;5015831;28;20227;-71
2021/09/01 05:11:30;;;;;;;7.17;6.67;;;;;;;7.08;100.00;98947.53;5014722;28;20697;-70
2021/09/01 05:13:58;;;;;;;7.43;6.73;;;;;;;7.10;100.00;98941.19;5027709;28;20219;-70
2021/09/01 05:16:26;;;;;;;6.73;6.23;;;;;;;7.23;100.00;98958.72;5023566;28;20204;-70
2021/09/01 05:18:54;;;;;;;7.23;6.53;;;;;;;7.30;100.00;98956.41;5029043;28;20539;-69
2021/09/01 05:21:25;;;;;;;7.20;6.73;;;;;;;7.34;100.00;98961.34;5027653;28;20205;-70
2021/09/01 05:23:55;;;;;;;7.13;6.57;;;;;;;7.44;100.00;98961.47;5028965;28;20235;-70
2021/09/01 05:26:31;;;;;;;7.33;6.63;;;;;;;7.56;100.00;98967.56;5028300;28;20247;-70
2021/09/01 05:29:03;;;;;;;7.30;6.70;;;;;;;7.60;100.00;98968.16;5029331;28;20227;-70
2021/09/01 05:31:32;;;;;;;7.27;6.70;;;;;;;7.74;100.00;98964.44;5023678;28;20211;-70
2021/09/01 05:34:02;;;;;;;7.97;7.17;;;;;;;7.86;100.00;98965.25;5030977;28;20208;-70
2021/09/01 05:36:31;;;;;;;7.70;7.00;;;;;;;8.08;100.00;98969.66;5027400;28;20232;-70
2021/09/01 05:39:00;;;;;;;7.90;7.23;;;;;;;8.16;100.00;98963.75;5027019;28;20719;-70
2021/09/01 05:41:30;;;;;;;7.37;6.57;;;;;;;8.29;100.00;98975.00;5032057;28;20240;-70
2021/09/01 05:43:59;;;;;;;9.97;7.07;;;;;;;8.44;100.00;98972.03;5024367;28;20219;-70
2021/09/01 05:46:28;;;;;;;7.37;6.77;;;;;;;8.45;100.00;98979.00;5023404;28;20602;-70
2021/09/01 05:48:56;;;;;;;8.60;7.27;;;;;;;8.61;100.00;98968.91;5023550;28;20204;-69
2021/09/01 05:51:24;;;;;;;9.73;8.63;;;;;;;8.77;100.00;98971.09;5038505;28;20524;-70
2021/09/01 05:53:52;;;;;;;11.60;9.70;;;;;;;8.89;100.00;98969.22;5035465;28;20708;-70
2021/09/01 05:56:26;;;;;;;12.33;9.60;;;;;;;8.88;100.00;98978.09;5027974;28;20208;-72
2021/09/01 05:58:59;;;;;;;13.33;10.13;;;;;;;8.94;100.00;98974.97;5033955;28;20208;-69
2021/09/01 06:01:29;;;;;;;11.17;10.07;;;;;;;9.08;100.00;98972.97;5026011;28;20212;-70
2021/09/01 06:03:59;;;;;;;12.20;9.40;;;;;;;9.18;100.00;98973.84;5027110;28;20204;-67
2021/09/01 06:06:28;;;;;;;12.93;10.13;;;;;;;9.30;100.00;98979.06;5032880;28;20233;-71
2021/09/01 06:08:59;;;;;;;12.07;10.77;;;;;;;9.50;100.00;98972.06;5027750;28;20204;-72
2021/09/01 06:11:28;;;;;;;15.87;11.67;;;;;;;9.54;100.00;98976.13;5031412;28;20639;-70
2021/09/01 06:13:58;;;;;;;12.03;10.83;;;;;;;9.64;100.00;98976.13;5031821;28;20211;-71
2021/09/01 06:16:26;;;;;;;17.10;11.97;;;;;;;9.67;100.00;98970.59;5024796;28;20223;-71
2021/09/01 06:18:54;;;;;;;14.87;11.13;;;;;;;9.69;100.00;98974.75;5030925;28;20204;-72
2021/09/01 06:21:22;;;;;;;20.40;12.50;;;;;;;9.72;100.00;98978.13;5025170;28;20211;-71
2021/09/01 06:23:50;;;;;;;18.10;11.73;;;;;;;9.84;100.00;98982.31;5029125;28;20696;-71
2021/09/01 06:26:18;;;;;;;17.40;12.77;;;;;;;9.90;100.00;98986.25;5026763;28;20212;-71
2021/09/01 06:28:46;;;;;;;16.60;11.70;;;;;;;10.06;100.00;98983.94;5027644;28;20196;-72
2021/09/01 06:31:16;;;;;;;22.80;14.47;;;;;;;10.24;100.00;98984.09;5023963;28;20232;-72
2021/09/01 06:33:44;;;;;;;24.17;14.47;;;;;;;10.21;100.00;98979.06;5028495;28;20232;-71
2021/09/01 06:36:12;;;;;;;17.03;12.53;;;;;;;10.30;100.00;98985.34;5025540;28;20219;-70
2021/09/01 06:38:40;;;;;;;22.73;12.93;;;;;;;10.48;100.00;98990.00;5026165;28;20208;-72
2021/09/01 06:41:08;;;;;;;21.20;14.17;;;;;;;10.61;100.00;98989.75;5021228;28;20218;-71
2021/09/01 06:43:36;;;;;;;18.77;12.97;;;;;;;10.67;100.00;98987.34;5027770;28;20219;-71
2021/09/01 06:46:05;;;;;;;21.70;15.13;;;;;;;10.81;100.00;98993.22;5031710;28;20695;-72
2021/09/01 06:48:34;;;;;;;26.80;14.73;;;;;;;10.90;100.00;98997.66;5017970;28;20204;-70
2021/09/01 06:51:02;;;;;;;30.33;15.60;;;;;;;11.03;100.00;99004.47;5021652;28;20227;-72
2021/09/01 06:53:30;;;;;;;31.03;17.30;;;;;;;11.06;100.00;98998.88;5017853;28;20891;-70
2021/09/01 06:55:58;;;;;;;39.93;21.10;;;;;;;10.87;100.00;99003.25;5017111;28;20199;-71
2021/09/01 06:58:26;;;;;;;32.43;19.00;;;;;;;11.05;100.00;98998.06;5019033;28;20209;-70
2021/09/01 07:00:54;;;;;;;30.77;20.03;;;;;;;10.91;100.00;99011.75;5020509;28;20860;-72
2021/09/01 07:03:22;;;;;;;28.90;19.93;;;;;;;10.97;100.00;99011.19;5025687;28;20823;-72
2021/09/01 07:05:52;;;;;;;26.80;19.13;;;;;;;11.05;100.00;99010.47;5029299;28;20251;-72
2021/09/01 07:08:21;;;;;;;35.23;20.30;;;;;;;11.12;100.00;99014.22;5025344;28;20204;-70
2021/09/01 07:10:50;;;;;;;39.10;21.43;;;;;;;11.14;100.00;99020.22;5025663;28;20239;-72
2021/09/01 07:13:18;;;;;;;31.17;20.73;;;;;;;11.22;100.00;99014.22;5025838;28;20239;-71
2021/09/01 07:15:47;;;;;;;36.20;21.67;;;;;;;11.29;100.00;99016.16;5027771;28;20650;-72
2021/09/01 07:18:16;;;;;;;32.70;21.77;;;;;;;11.27;100.00;99022.59;5023967;28;20652;-70
2021/09/01 07:20:47;;;;;;;31.57;23.17;;;;;;;11.33;100.00;99014.03;5026682;28;20231;-71
2021/09/01 07:23:17;;;;;;;29.43;21.07;;;;;;;11.44;100.00;99026.31;5023212;28;20488;-71
2021/09/01 07:25:46;;;;;;;29.27;21.63;;;;;;;11.71;100.00;99019.38;5030850;28;20672;-72
2021/09/01 07:28:14;;;;;;;26.07;23.23;;;;;;;11.64;100.00;99021.78;5025001;28;20212;-72
2021/09/01 07:30:42;;;;;;;27.50;20.77;;;;;;;11.76;100.00;99017.13;5025133;28;20236;-71
2021/09/01 07:33:11;;;;;;;27.13;21.27;;;;;;;11.91;100.00;99022.78;5026450;28;20227;-71
2021/09/01 07:35:42;;;;;;;27.37;21.33;;;;;;;11.97;100.00;99024.03;5026052;28;20497;-71
2021/09/01 07:38:11;;;;;;;34.03;22.47;;;;;;;12.11;100.00;99017.38;5029340;28;20208;-72
2021/09/01 07:40:40;;;;;;;28.17;20.53;;;;;;;12.27;100.00;99020.25;5031629;28;20284;-70
2021/09/01 07:43:08;;;;;;;24.30;20.47;;;;;;;12.48;100.00;99026.25;5023818;28;20227;-72
2021/09/01 07:45:36;;;;;;;32.20;22.50;;;;;;;12.64;100.00;99028.25;5029385;28;20582;-71
2021/09/01 07:48:05;;;;;;;29.97;22.73;;;;;;;12.65;100.00;99030.75;5030033;28;20269;-71
2021/09/01 07:50:33;;;;;;;30.13;22.97;;;;;;;12.56;100.00;99036.97;5028725;28;20228;-74
2021/09/01 07:53:02;;;;;;;27.97;22.47;;;;;;;12.45;100.00;99044.19;5031029;28;20227;-70
2021/09/01 07:55:30;;;;;;;33.43;23.33;;;;;;;12.76;100.00;99040.31;5028615;28;21418;-73
2021/09/01 07:57:59;;;;;;;24.50;20.33;;;;;;;12.73;100.00;99045.94;5028873;28;20218;-71
2021/09/01 08:00:28;;;;;;;26.77;22.30;;;;;;;12.91;100.00;99055.75;5030106;28;20217;-70
2021/09/01 08:02:56;;;;;;;27.03;21.00;;;;;;;13.09;100.00;99056.56;5032439;28;20617;-71
2021/09/01 08:05:24;;;;;;;24.50;20.47;;;;;;;13.40;100.00;99047.28;5031350;28;20622;-72
2021/09/01 08:07:52;;;;;;;20.07;17.47;;;;;;;13.43;100.00;99055.00;5027672;28;20414;-71
2021/09/01 08:10:20;;;;;;;20.90;18.70;;;;;;;13.32;100.00;99062.22;5029842;28;20232;-71
2021/09/01 08:12:49;;;;;;;23.97;19.20;;;;;;;13.26;100.00;99067.34;5033897;28;20236;-71
2021/09/01 08:15:18;;;;;;;24.53;20.63;;;;;;;13.05;100.00;99059.69;5032839;28;20219;-72
2021/09/01 08:17:46;;;;;;;23.67;20.27;;;;;;;13.06;100.00;99066.66;5033281;28;20203;-71
2021/09/01 08:20:15;;;;;;;21.97;19.37;;;;;;;13.22;100.00;99068.63;5029452;28;20214;-72
2021/09/01 08:22:43;;;;;;;25.43;20.17;;;;;;;13.21;100.00;99067.81;5027888;28;20319;-71
2021/09/01 08:25:11;;;;;;;21.87;19.50;;;;;;;13.18;100.00;99078.75;5029246;28;20204;-72
2021/09/01 08:27:40;;;;;;;21.90;19.53;;;;;;;13.02;100.00;99074.97;5030407;28;20238;-73
2021/09/01 08:30:09;;;;;;;22.20;19.70;;;;;;;13.09;100.00;99071.72;5024899;28;20219;-74
2021/09/01 08:32:38;;;;;;;23.00;20.70;;;;;;;13.07;100.00;99079.84;5025591;28;20234;-72
2021/09/01 08:35:07;;;;;;;22.17;19.53;;;;;;;13.26;100.00;99067.34;5018891;28;20868;-70
2021/09/01 08:37:36;;;;;;;21.40;19.03;;;;;;;13.57;100.00;99062.44;5028334;28;20619;-72
2021/09/01 08:40:06;;;;;;;21.97;18.63;;;;;;;13.70;100.00;99063.81;5026536;28;20204;-72
2021/09/01 08:42:35;;;;;;;21.63;17.90;;;;;;;13.81;100.00;99060.06;5028211;28;20667;-72
2021/09/01 08:45:05;;;;;;;20.17;18.07;;;;;;;13.70;100.00;99059.34;5029701;28;20672;-72
2021/09/01 08:47:34;;;;;;;21.03;18.93;;;;;;;13.96;100.00;99052.31;5026557;28;20299;-71
2021/09/01 08:50:05;;;;;;;20.57;18.57;;;;;;;14.07;100.00;99048.53;5027481;28;20210;-69
2021/09/01 08:52:34;;;;;;;20.83;18.47;;;;;;;14.16;100.00;99048.38;5027586;28;20234;-70
2021/09/01 08:55:02;;;;;;;19.00;17.17;;;;;;;14.03;100.00;99046.19;5029679;28;20724;-71
2021/09/01 08:57:32;;;;;;;17.80;16.17;;;;;;;14.26;100.00;99047.44;5026767;28;20215;-74
2021/09/01 09:00:00;;;;;;;18.20;16.27;;;;;;;14.46;100.00;99045.31;5025671;28;20710;-73
2021/09/01 09:02:29;;;;;;;16.40;14.70;;;;;;;14.72;100.00;99047.88;5027333;28;20315;-72
2021/09/01 09:04:58;;;;;;;18.43;16.17;;;;;;;14.64;100.00;99050.50;5024935;28;20212;-71
2021/09/01 09:08:00;;;;;;;19.23;16.80;;;;;;;14.67;100.00;99038.66;5026275;28;20330;-71
2021/09/01 09:10:34;;;;;;;18.33;16.37;;;;;;;15.04;100.00;99045.38;5030126;28;20471;-71
2021/09/01 09:13:04;;;;;;;18.20;16.20;;;;;;;15.21;100.00;99046.22;5028408;28;20278;-69
2021/09/01 09:15:32;;;;;;;17.27;15.47;;;;;;;15.42;100.00;99031.50;5030288;28;20203;-71
2021/09/01 09:18:01;;;;;;;15.07;13.63;;;;;;;15.43;100.00;99030.50;5035319;28;20242;-73
2021/09/01 09:20:31;;;;;;;15.97;14.13;;;;;;;15.60;100.00;99031.31;5026572;28;20216;-72
2021/09/01 09:23:05;;;;;;;15.27;13.67;;;;;;;15.63;100.00;99034.44;5029575;28;20225;-72
2021/09/01 09:25:34;;;;;;;12.53;11.30;;;;;;;15.70;100.00;99039.97;5028657;28;20552;-72
2021/09/01 09:28:05;;;;;;;14.03;12.63;;;;;;;15.81;100.00;99040.59;5025566;28;20215;-72
2021/09/01 09:30:37;;;;;;;16.80;14.43;;;;;;;16.03;100.00;99047.03;5026543;28;20335;-71
2021/09/01 09:33:08;;;;;;;16.17;12.57;;;;;;;16.01;100.00;99033.03;5042197;28;20231;-72
2021/09/01 09:35:58;;;;;;;20.03;13.67;;;;;;;16.23;100.00;99042.09;5037746;28;20291;-71
2021/09/01 09:38:30;;;;;;;13.43;12.13;;;;;;;16.22;100.00;99050.31;5028652;28;20546;-71
2021/09/01 09:40:59;;;;;;;11.40;10.30;;;;;;;16.54;100.00;99045.81;5031430;28;20474;-71
2021/09/01 09:43:28;;;;;;;11.30;10.20;;;;;;;16.59;100.00;99049.59;5028294;28;20358;-71
2021/09/01 09:46:03;;;;;;;11.33;9.97;;;;;;;16.59;100.00;99048.78;5027186;28;20205;-71
2021/09/01 09:48:36;;;;;;;12.13;10.97;;;;;;;16.52;100.00;99045.97;5024583;28;20695;-71
2021/09/01 09:51:05;;;;;;;12.07;10.80;;;;;;;16.59;100.00;99046.09;5024400;28;20545;-69
2021/09/01 09:53:37;;;;;;;10.57;9.57;;;;;;;16.69;100.00;99041.34;5030640;28;20420;-71
2021/09/01 09:56:11;;;;;;;10.10;8.80;;;;;;;16.88;100.00;99039.22;5031379;28;20280;-72
2021/09/01 09:58:42;;;;;;;9.60;8.80;;;;;;;17.09;100.00;99038.56;5025380;28;20647;-71
2021/09/01 10:01:11;;;;;;;8.37;7.67;;;;;;;16.93;100.00;99028.78;5026790;28;20230;-70
2021/09/01 10:03:40;;;;;;;8.90;8.10;;;;;;;16.92;100.00;99035.16;5030939;28;20767;-71
2021/09/01 10:06:13;;;;;;;9.40;8.03;;;;;;;16.89;100.00;99035.53;5026663;28;20243;-70
2021/09/01 10:08:43;;;;;;;8.77;7.97;;;;;;;16.54;100.00;99032.44;5026224;28;20212;-71
2021/09/01 10:11:12;;;;;;;7.37;6.77;;;;;;;16.57;100.00;99034.75;5032237;28;20216;-70
2021/09/01 10:13:46;;;;;;;7.13;6.27;;;;;;;16.70;100.00;99028.81;5025976;28;20343;-71
2021/09/01 10:16:25;;;;;;;7.17;6.40;;;;;;;17.12;100.00;99029.31;5009082;28;20595;-70
2021/09/01 10:18:58;;;;;;;7.20;6.33;;;;;;;17.13;100.00;99031.00;5026720;28;20208;-71
2021/09/01 10:21:28;;;;;;;8.23;7.53;;;;;;;17.26;100.00;99025.03;5024760;28;20212;-71
2021/09/01 10:23:58;;;;;;;7.20;6.53;;;;;;;17.47;100.00;99021.63;5029865;28;20616;-71
2021/09/01 10:26:28;;;;;;;7.90;7.13;;;;;;;17.74;100.00;99027.38;5031060;28;20215;-70
2021/09/01 10:28:57;;;;;;;7.40;6.80;;;;;;;17.89;100.00;99027.38;5025155;28;20289;-70
2021/09/01 10:31:30;;;;;;;6.23;5.63;;;;;;;18.34;100.00;99020.09;5028904;28;20218;-72
2021/09/01 10:34:02;;;;;;;6.67;6.07;;;;;;;18.33;98.86;99020.28;5030525;28;20678;-72
2021/09/01 10:36:57;;;;;;;6.80;6.13;;;;;;;18.52;94.78;99003.56;5025905;28;20329;-71
2021/09/01 10:39:47;;;;;;;6.40;5.90;;;;;;;18.77;95.79;99008.56;5030289;28;20318;-72
2021/09/01 10:42:36;;;;;;;6.43;5.90;;;;;;;19.20;100.00;99002.31;5023683;28;20904;-72
2021/09/01 10:45:10;;;;;;;5.47;4.97;;;;;;;19.38;94.42;99003.69;5028741;28;20355;-71
2021/09/01 10:48:03;;;;;;;5.23;4.83;;;;;;;20.21;77.51;98992.09;5022852;28;20208;-71
2021/09/01 10:50:33;;;;;;;5.63;5.10;;;;;;;20.47;75.47;98993.22;5004166;28;20216;-72
2021/09/01 10:53:04;;;;;;;5.73;5.33;;;;;;;20.62;73.96;98997.59;5023012;28;20239;-72
2021/09/01 10:55:35;;;;;;;5.60;5.20;;;;;;;20.14;78.64;98990.44;5023517;28;20201;-71
2021/09/01 10:58:30;;;;;;;5.40;5.00;;;;;;;20.17;75.39;98996.25;5026040;28;20291;-71
2021/09/01 11:01:00;;;;;;;5.13;4.80;;;;;;;19.37;83.06;98992.09;5018024;28;20236;-72
2021/09/01 11:03:29;;;;;;;6.53;5.03;;;;;;;19.01;88.13;98993.09;5024902;28;20326;-70
2021/09/01 11:06:27;;;;;;;5.10;4.70;;;;;;;19.42;81.67;98994.22;5024346;28;20215;-70
2021/09/01 11:09:07;;;;;;;5.23;4.83;;;;;;;20.30;74.55;99006.22;5024423;28;20235;-70
2021/09/01 11:11:45;;;;;;;5.17;4.77;;;;;;;20.35;70.32;99000.25;5026975;28;20741;-72
2021/09/01 11:14:15;;;;;;;5.47;5.07;;;;;;;20.37;73.84;98990.09;5024512;28;20634;-72
2021/09/01 11:16:43;;;;;;;4.97;4.57;;;;;;;20.63;75.30;98993.84;5023654;28;20612;-70
2021/09/01 11:19:12;;;;;;;4.93;4.53;;;;;;;20.73;79.06;98994.31;5022798;28;20204;-73
2021/09/01 11:21:43;;;;;;;4.90;4.50;;;;;;;20.35;78.31;98984.91;5024032;28;20227;-72
2021/09/01 11:24:13;;;;;;;4.93;4.53;;;;;;;19.80;83.87;98984.88;5027357;28;20223;-72
2021/09/01 11:26:41;;;;;;;5.83;5.33;;;;;;;19.58;83.92;98985.00;5024570;28;20235;-71
2021/09/01 11:29:11;;;;;;;5.67;5.17;;;;;;;18.78;84.09;98988.75;5024166;28;20207;-71
2021/09/01 11:31:44;;;;;;;5.07;4.60;;;;;;;18.82;85.89;98988.38;5026550;28;20200;-72
2021/09/01 11:34:13;;;;;;;5.40;4.90;;;;;;;18.73;88.60;98985.78;5032564;28;20218;-72
2021/09/01 11:36:42;;;;;;;5.13;4.63;;;;;;;19.31;87.08;98986.69;5030875;28;20208;-71